Sim-Planet VA

Sim-Planet Nouvel Horizon. By: Anthony Pay
Since 2020.




 METAR ET TAF INFORMATION
METAR FOR LBSF
ADDS - METARS form results

(2029 UTC 28 January 2022)
Data provider http://aviationweather.gov/metar/data/
 
METAR text: LBSF 282000Z 28010KT 9999 OVC056 02/M03 Q1022 NOSIG
Conditions at: LBSF (SOFIA , BG) observed 2000 UTC 28 January 2022
Temperature: 2.0°C (36°F)
Dewpoint: -3.0°C (27°F) [RH = 69%]
Pressure (altimeter): 30.18 inches Hg (1022.0 mb)
Winds: from the W (280 degrees) at 12 MPH (10 knots; 5.1 m/s)
Visibility: 6 or more miles (10+ km)
Ceiling: 5600 feet AGL
Clouds: overcast cloud deck at 5600 feet AGL
Weather: no significant weather observed at this time

METAR text: LBSF 281930Z 29010KT 9999 SCT047 OVC055 02/M04 Q1022 NOSIG
Conditions at: LBSF (SOFIA , BG) observed 1930 UTC 28 January 2022
Temperature: 2.0°C (36°F)
Dewpoint: -4.0°C (25°F) [RH = 64%]
Pressure (altimeter): 30.18 inches Hg (1022.0 mb)
Winds: from the WNW (290 degrees) at 12 MPH (10 knots; 5.1 m/s)
Visibility: 6 or more miles (10+ km)
Ceiling: 5500 feet AGL
Clouds: scattered clouds at 4700 feet AGL
overcast cloud deck at 5500 feet AGL
Weather: no significant weather observed at this time

Forecast for: LBSF (SOFIA , BG)
Text: TAF LBSF 281700Z 2818/2918 28012KT 9999 SCT050
Forecast period: 1800 to 2100 UTC 28 January 2022
Forecast type: FROM: standard forecast or significant change
Winds: from the W (280 degrees) at 14 MPH (12 knots; 6.2 m/s)
Visibility: 6 or more miles (10+ km)
Ceiling: at least 12,000 feet AGL
Clouds: scattered clouds at 5000 feet AGL
Weather: no significant weather forecast for this period
Text: BECMG 2821/2823 SCT015 BKN030
Forecast period: 2100 UTC 28 January 2022 to 1800 UTC 29 January 2022
Forecast type: BECOMING: Conditions expected to become as follows by 2300 UTC 28 January 2022
Winds: from the W (280 degrees) at 14 MPH (12 knots; 6.2 m/s)
Visibility: 6 or more miles (10+ km)
Ceiling: 3000 feet AGL
Clouds: scattered clouds at 1500 feet AGL
broken clouds at 3000 feet AGL
Weather: no significant weather forecast for this period

 AÉROPORT DE AÉROPORT

 INFORMATIONS DE PISTE
Piste 09 Longueur de la piste 9186 ft Largeur de la piste 147 ft
Élévation de la piste 1739 ft Seuil de la piste déplacés 0 ft Runway heading 95
Piste 27 Longueur de la piste 9186 ft Largeur de la piste 147 ft
Élévation de la piste 1742 ft Seuil de la piste déplacés 0 ft Runway heading 275

 AÉROPORT FRÉQUENCES
Type APP Nom APP Féquence 123.7 MHZ
Type ATIS Nom ATIS Féquence 124.05 MHZ
Type TWR Nom TWR Féquence 118.1 MHZ

 SIDA DE NAVIGATION
Type NDB Nom Bozhourishte Féquence 312 KHZ
Type NDB Nom Sofia Féquence 375 KHZ
Type NDB Nom Sofia Féquence 335 KHZ
Type NDB Nom Sofia Féquence 529 KHZ
Type VOR-DME Nom Sofia Féquence 112600 KHZ
Type NDB Nom Sofia Féquence 350 KHZ

Nos Partenaires